Roald Amundsen — DARG — position and weather

sailwx.info

Track history (hours):
 
Tides and Currents Weather Stations Pressure Air Temp Water Temp Dewpoint Dewpoint Depression Visibility Wind Speed Wind Dir Waves Ship Positions

Roald Amundsen (Germany)

Built as a deep sea lugger in 1952. Converted and rigged as a traditional brig in 1992.

Ship's website: http://www.sailtraining.de/

Last reported at 2019-Jun-16 14:30 UTC. Time now 2019-Jun-16 14:58 UTC.
Position N 55°10' E 010°59'.

Length 50 m; beam 7.4 m; draft 4.5 m.

Type: Sailing vessel. MMSI: 211215170.

Date/timePositionNaut miles runAvg speedWind from/ knotsBaromVisibWave heightAir tempDewpointWater temp
2019-Jun-16 14:30N 55°10' E 010°59'2 2.4
2019-Jun-16 13:35N 55°12' E 010°59'0 2.2
2019-Jun-16 13:23N 55°12' E 010°59'2 3.0
2019-Jun-16 12:47N 55°14' E 010°59'1 2.9
2019-Jun-16 12:19N 55°15' E 011°00'1 2.6
2019-Jun-16 11:52N 55°16' E 011°01'15 3.0
2019-Jun-16 06:59N 55°28' E 010°44'3 1.2
2019-Jun-16 04:30N 55°29' E 010°49'36 2.8
2019-Jun-15 15:45N 55°32' E 009°46'5 0.8
2019-Jun-15 09:07N 55°27' E 009°43'1 5.9
2019-Jun-15 08:59N 55°26' E 009°44'13 4.4
2019-Jun-15 05:57N 55°13' E 009°50'6 0.9
2019-Jun-14 23:11N 55°09' E 009°57'0 0.0
2019-Jun-14 22:53N 55°09' E 009°57'5 0.6
2019-Jun-14 15:19N 55°04' E 009°59'3 4.3
2019-Jun-14 14:43N 55°02' E 010°01'3 5.8
2019-Jun-14 14:14N 54°59' E 010°03'1 5.3
2019-Jun-14 14:00N 54°58' E 010°04'2 4.3
2019-Jun-14 13:30N 54°56' E 010°05'2 4.5
2019-Jun-14 13:00N 54°54' E 010°06'2 4.3
2019-Jun-14 12:30N 54°52' E 010°07'2 4.3
2019-Jun-14 12:00N 54°50' E 010°06'2 3.8
2019-Jun-14 11:30N 54°48' E 010°05'1 1.9
2019-Jun-14 10:55N 54°47' E 010°03'1 3.2
2019-Jun-14 10:29N 54°48' E 010°01'2 3.6
2019-Jun-14 10:01N 54°48' E 009°58'2 3.4
2019-Jun-14 09:30N 54°49' E 009°56'2 3.4
2019-Jun-14 08:59N 54°50' E 009°53'2 3.7
2019-Jun-14 08:26N 54°51' E 009°50'2 3.9
2019-Jun-14 08:00N 54°52' E 009°48'2 3.6
2019-Jun-14 07:30N 54°53' E 009°45'0 0.4
2019-Jun-14 06:55N 54°54' E 009°45'0 0.0
2019-Jun-14 06:28N 54°54' E 009°45'0 0.0
2019-Jun-14 05:58N 54°54' E 009°45'0 0.0
2019-Jun-14 05:28N 54°54' E 009°45'0 0.0
2019-Jun-14 04:55N 54°54' E 009°45'0 0.0
2019-Jun-14 04:28N 54°54' E 009°45'0 0.0
2019-Jun-14 03:58N 54°54' E 009°45'0 0.0
2019-Jun-14 03:28N 54°54' E 009°45'0 0.0
2019-Jun-14 02:52N 54°54' E 009°45'0 0.0
2019-Jun-14 02:25N 54°54' E 009°45'0 0.0
2019-Jun-14 01:19N 54°54' E 009°45'0 0.0
2019-Jun-13 20:37N 54°54' E 009°45'0 0.0
2019-Jun-13 20:28N 54°54' E 009°45'0 0.0
2019-Jun-13 19:34N 54°54' E 009°45'0 0.0
2019-Jun-13 19:07N 54°54' E 009°45'0 0.0
2019-Jun-13 18:01N 54°54' E 009°45'0 0.0
2019-Jun-13 17:01N 54°54' E 009°45'0 0.0
2019-Jun-13 16:40N 54°54' E 009°45'0 0.0
2019-Jun-13 16:07N 54°54' E 009°45'0 0.0
2019-Jun-13 15:22N 54°54' E 009°45'0 0.0
2019-Jun-13 14:55N 54°54' E 009°45'0 0.0
2019-Jun-13 14:16N 54°54' E 009°45'0 0.0
2019-Jun-13 12:38N 54°54' E 009°45'1 2.3
2019-Jun-13 12:07N 54°53' E 009°47'7 4.0
2019-Jun-13 10:18N 54°49' E 009°57'1 4.1
2019-Jun-13 10:01N 54°48' E 009°59'2 3.1
2019-Jun-13 09:30N 54°47' E 010°01'1 2.8
2019-Jun-13 09:00N 54°46' E 010°03'1 2.7
2019-Jun-13 08:31N 54°45' E 010°04'1 2.8
2019-Jun-13 08:00N 54°44' E 010°06'1 2.8
2019-Jun-13 07:31N 54°43' E 010°08'1 1.7
2019-Jun-13 07:00N 54°42' E 010°07'2 3.8
2019-Jun-13 06:30N 54°41' E 010°04'2 3.4
2019-Jun-13 06:00N 54°40' E 010°03'1 1.2
2019-Jun-13 05:27N 54°39' E 010°03'0 0.0
2019-Jun-13 04:57N 54°39' E 010°03'0 0.0
2019-Jun-13 04:27N 54°39' E 010°03'0 0.0
2019-Jun-13 04:00N 54°39' E 010°03'0 0.0
2019-Jun-13 03:30N 54°39' E 010°03'0 0.0
2019-Jun-13 03:00N 54°39' E 010°03'0 0.0
2019-Jun-13 02:27N 54°39' E 010°03'0 0.0
2019-Jun-13 02:00N 54°39' E 010°03'0 0.0
2019-Jun-13 01:18N 54°39' E 010°03'0 0.0
2019-Jun-13 01:00N 54°39' E 010°03'0 0.0
2019-Jun-13 00:30N 54°39' E 010°03'0 0.0
2019-Jun-13 00:00N 54°39' E 010°03'0 0.0
2019-Jun-12 23:30N 54°39' E 010°03'0 0.0
2019-Jun-12 22:48N 54°39' E 010°03'0 0.0
2019-Jun-12 22:30N 54°39' E 010°03'0 0.0
2019-Jun-12 22:00N 54°39' E 010°03'0 0.0
2019-Jun-12 18:51N 54°39' E 010°03'0 0.0
2019-Jun-12 17:34N 54°39' E 010°03'0 0.7
2019-Jun-12 17:31N 54°39' E 010°03'2 3.7
2019-Jun-12 17:00N 54°37' E 010°04'1 1.6
2019-Jun-12 16:30N 54°37' E 010°04'0 0.8
2019-Jun-12 16:00N 54°36' E 010°04'1 2.5
2019-Jun-12 15:30N 54°35' E 010°03'1 1.4
2019-Jun-12 15:00N 54°34' E 010°03'1 1.4
2019-Jun-12 14:30N 54°34' E 010°03'1 1.4
2019-Jun-12 14:00N 54°33' E 010°03'1 1.9
2019-Jun-12 13:30N 54°32' E 010°03'1 2.9
2019-Jun-12 13:00N 54°31' E 010°02'1 2.6
2019-Jun-12 12:30N 54°30' E 009°60'1 2.3
2019-Jun-12 12:00N 54°30' E 009°58'1 2.9
2019-Jun-12 11:30N 54°29' E 009°56'1 2.9
2019-Jun-12 11:00N 54°28' E 009°54'2 2.5
2019-Jun-12 10:22N 54°28' E 009°51'0 0.1
2019-Jun-12 09:57N 54°28' E 009°51'0 0.0
2019-Jun-12 07:45N 54°28' E 009°51'0 0.0
2019-Jun-12 07:18N 54°28' E 009°51'0 0.1
2019-Jun-12 07:00N 54°28' E 009°51'0 0.0
2019-Jun-12 06:30N 54°28' E 009°51'0 0.0
2019-Jun-12 05:57N 54°28' E 009°51'0 0.0
2019-Jun-12 05:30N 54°28' E 009°51'0 0.0
2019-Jun-12 04:45N 54°28' E 009°51'0 0.0
2019-Jun-12 04:30N 54°28' E 009°51'0 0.0
2019-Jun-12 04:00N 54°28' E 009°51'0 0.1
2019-Jun-12 03:30N 54°28' E 009°51'0 0.1
2019-Jun-12 03:00N 54°28' E 009°51'0 0.1
2019-Jun-12 02:30N 54°28' E 009°51'0 0.0
2019-Jun-12 01:21N 54°28' E 009°51'0 0.0
2019-Jun-12 01:00N 54°28' E 009°51'0 0.0
2019-Jun-12 00:30N 54°28' E 009°51'0 0.0
2019-Jun-12 00:00N 54°28' E 009°51'0 0.0
2019-Jun-11 23:21N 54°28' E 009°51'0 0.0
2019-Jun-11 22:51N 54°28' E 009°51'0 0.0
2019-Jun-11 22:23N 54°28' E 009°51'0 0.0
2019-Jun-11 21:53N 54°28' E 009°51'0 0.0
2019-Jun-11 21:26N 54°28' E 009°51'0 0.0
2019-Jun-11 20:56N 54°28' E 009°51'0 0.0
2019-Jun-11 20:26N 54°28' E 009°51'0 0.0
2019-Jun-11 19:56N 54°28' E 009°51'0 0.0
2019-Jun-11 19:26N 54°28' E 009°51'0 0.0
2019-Jun-11 18:56N 54°28' E 009°51'0 0.0
2019-Jun-11 18:26N 54°28' E 009°51'0 0.0
2019-Jun-11 17:59N 54°28' E 009°51'0 0.0
2019-Jun-11 17:29N 54°28' E 009°51'0 0.0
2019-Jun-11 16:59N 54°28' E 009°51'0 0.5
2019-Jun-11 16:22N 54°28' E 009°50'0 0.0
2019-Jun-11 15:52N 54°28' E 009°50'0 0.0
2019-Jun-11 15:22N 54°28' E 009°50'0 0.0
2019-Jun-11 14:52N 54°28' E 009°50'0 0.0
2019-Jun-11 14:22N 54°28' E 009°50'0 0.0
2019-Jun-11 13:55N 54°28' E 009°50'0 0.0
2019-Jun-11 13:25N 54°28' E 009°50'0 0.0
2019-Jun-11 12:55N 54°28' E 009°50'0 0.0
2019-Jun-11 12:22N 54°28' E 009°50'0 0.0
2019-Jun-11 11:55N 54°28' E 009°50'0 0.0
2019-Jun-11 11:25N 54°28' E 009°50'0 0.0
2019-Jun-11 10:55N 54°28' E 009°50'0 0.0
2019-Jun-11 10:28N 54°28' E 009°50'0 0.0
2019-Jun-11 09:58N 54°28' E 009°50'0 0.0
2019-Jun-11 09:28N 54°28' E 009°50'0 0.0
2019-Jun-11 08:58N 54°28' E 009°50'0 0.0
2019-Jun-11 08:28N 54°28' E 009°50'0 0.0
2019-Jun-11 07:58N 54°28' E 009°50'0 0.0
2019-Jun-11 07:28N 54°28' E 009°50'0 0.0
2019-Jun-11 06:58N 54°28' E 009°50'0 0.0
2019-Jun-11 06:28N 54°28' E 009°50'0 0.0
2019-Jun-11 05:58N 54°28' E 009°50'0 0.0
2019-Jun-11 05:28N 54°28' E 009°50'0 0.0
2019-Jun-11 04:58N 54°28' E 009°50'0 0.0
2019-Jun-11 04:28N 54°28' E 009°50'0 0.0
2019-Jun-11 03:49N 54°28' E 009°50'0 0.0
2019-Jun-11 03:19N 54°28' E 009°50'0 0.0
2019-Jun-11 02:49N 54°28' E 009°50'0 0.0
2019-Jun-11 02:22N 54°28' E 009°50'0 0.0
2019-Jun-11 01:52N 54°28' E 009°50'0 0.0
2019-Jun-11 01:22N 54°28' E 009°50'0 0.0
2019-Jun-11 00:52N 54°28' E 009°50'0 0.0
2019-Jun-11 00:22N 54°28' E 009°50'0 0.0
2019-Jun-10 23:52N 54°28' E 009°50'0 0.0
2019-Jun-10 23:22N 54°28' E 009°50'0 0.0
2019-Jun-10 22:55N 54°28' E 009°50'0 0.0
2019-Jun-10 22:22N 54°28' E 009°50'0 0.0
2019-Jun-10 21:52N 54°28' E 009°50'0 0.0
2019-Jun-10 21:25N 54°28' E 009°50'0 0.0
2019-Jun-10 20:58N 54°28' E 009°50'0 0.0
2019-Jun-10 20:28N 54°28' E 009°50'0 0.0
2019-Jun-10 19:58N 54°28' E 009°50'0 0.0
2019-Jun-10 19:28N 54°28' E 009°50'0 0.0
2019-Jun-10 18:58N 54°28' E 009°50'0 0.0
2019-Jun-10 18:28N 54°28' E 009°50'0 0.0
2019-Jun-10 17:58N 54°28' E 009°50'0 0.0
2019-Jun-10 17:28N 54°28' E 009°50'0 0.0
2019-Jun-10 16:58N 54°28' E 009°50'0 0.0
2019-Jun-10 16:28N 54°28' E 009°50'0 0.0
2019-Jun-10 15:58N 54°28' E 009°50'0 0.0
2019-Jun-10 15:28N 54°28' E 009°50'0 0.0
2019-Jun-10 14:58N 54°28' E 009°50'0 0.0
2019-Jun-10 14:19N 54°28' E 009°50'0 0.0
2019-Jun-10 13:49N 54°28' E 009°50'0 0.0
2019-Jun-10 13:19N 54°28' E 009°50'0 0.0
2019-Jun-10 12:49N 54°28' E 009°50'0 0.0
2019-Jun-10 12:19N 54°28' E 009°50'0 0.0
2019-Jun-10 11:52N 54°28' E 009°50'0 0.0
2019-Jun-10 11:24N 54°28' E 009°50'0 0.2
2019-Jun-10 11:00N 54°28' E 009°51'2 4.1
2019-Jun-10 10:30N 54°29' E 009°54'3 5.4
2019-Jun-10 10:00N 54°30' E 009°58'3 5.0
2019-Jun-10 09:30N 54°31' E 010°02'2 4.5
2019-Jun-10 09:00N 54°33' E 010°04'2 4.2
2019-Jun-10 08:30N 54°35' E 010°06'2 4.1
2019-Jun-10 08:00N 54°37' E 010°08'2 4.2
2019-Jun-10 07:29N 54°39' E 010°09'2 4.6
2019-Jun-10 07:00N 54°41' E 010°09'6 5.7
2019-Jun-10 05:56N 54°47' E 010°11'3 6.0
2019-Jun-10 05:30N 54°50' E 010°11'2 4.8
2019-Jun-10 05:00N 54°52' E 010°11'4 2.6
2019-Jun-10 03:31N 54°56' E 010°13'0 4.4
2019-Jun-10 03:29N 54°56' E 010°13'1 0.5
2019-Jun-10 01:50N 54°56' E 010°14'0 0.0
2019-Jun-10 01:02N 54°56' E 010°14'0 0.0
2019-Jun-10 00:50N 54°56' E 010°14'0 0.0
2019-Jun-10 00:11N 54°56' E 010°14'0 0.0
2019-Jun-09 22:20N 54°56' E 010°14'5 0.1
2019-Jun-08 10:42N 54°56' E 010°05'2 6.5
2019-Jun-08 10:24N 54°54' E 010°06'10 6.3
2019-Jun-08 08:47N 54°44' E 010°08'2 6.4
2019-Jun-08 08:30N 54°42' E 010°09'3 6.1
2019-Jun-08 08:00N 54°39' E 010°09'3 5.2
2019-Jun-08 07:30N 54°37' E 010°09'2 4.9
2019-Jun-08 07:01N 54°34' E 010°07'2 4.7
2019-Jun-08 06:30N 54°32' E 010°05'2 3.7
2019-Jun-08 06:00N 54°31' E 010°02'3 5.1
2019-Jun-08 05:30N 54°30' E 009°59'3 5.1
2019-Jun-08 05:00N 54°29' E 009°55'2 4.0
2019-Jun-08 04:30N 54°28' E 009°51'0 0.2
2019-Jun-08 03:59N 54°28' E 009°51'0 0.0
2019-Jun-08 03:29N 54°28' E 009°51'0 0.0
2019-Jun-08 02:59N 54°28' E 009°51'0 0.0
2019-Jun-08 02:29N 54°28' E 009°51'0 0.0
2019-Jun-08 01:59N 54°28' E 009°51'0 0.0
2019-Jun-08 01:29N 54°28' E 009°51'0 0.0
2019-Jun-08 01:00N 54°28' E 009°51'0 0.0
2019-Jun-08 00:29N 54°28' E 009°51'0 0.0
2019-Jun-07 23:59N 54°28' E 009°51'0 0.0
2019-Jun-07 23:29N 54°28' E 009°51'0 0.0
2019-Jun-07 22:59N 54°28' E 009°51'0 0.1
2019-Jun-07 22:29N 54°28' E 009°51'0 0.0
2019-Jun-07 21:59N 54°28' E 009°51'0 0.0
2019-Jun-07 21:29N 54°28' E 009°51'0 0.0
2019-Jun-07 20:59N 54°28' E 009°51'0 0.0
2019-Jun-07 20:26N 54°28' E 009°51'0 0.0
2019-Jun-07 19:59N 54°28' E 009°51'0 0.0
2019-Jun-07 19:29N 54°28' E 009°51'0 0.0
2019-Jun-07 18:59N 54°28' E 009°51'0 0.0
2019-Jun-07 18:26N 54°28' E 009°51'0 0.0
2019-Jun-07 17:59N 54°28' E 009°51'0 0.5
2019-Jun-07 17:29N 54°28' E 009°51'0 0.7
2019-Jun-07 16:58N 54°28' E 009°50'0 0.0
2019-Jun-07 16:28N 54°28' E 009°50'0 0.0
2019-Jun-07 15:58N 54°28' E 009°50'0 0.0
2019-Jun-07 15:22N 54°28' E 009°50'0 0.0
2019-Jun-07 14:58N 54°28' E 009°50'0 0.0
2019-Jun-07 14:28N 54°28' E 009°50'0 0.0
2019-Jun-07 13:43N 54°28' E 009°50'0 0.0
2019-Jun-07 13:28N 54°28' E 009°50'0 0.0
2019-Jun-07 12:58N 54°28' E 009°50'0 0.0
2019-Jun-07 12:25N 54°28' E 009°50'0 0.0
2019-Jun-07 11:46N 54°28' E 009°50'0 0.0
2019-Jun-07 11:28N 54°28' E 009°50'0 0.0
2019-Jun-07 10:46N 54°28' E 009°50'0 0.0
2019-Jun-07 10:19N 54°28' E 009°50'0 0.0
2019-Jun-07 09:43N 54°28' E 009°50'0 0.0
2019-Jun-07 09:17N 54°28' E 009°50'0 0.0
2019-Jun-07 08:59N 54°28' E 009°50'0 0.0
2019-Jun-07 08:29N 54°28' E 009°50'0 0.0
2019-Jun-07 07:59N 54°28' E 009°50'0 0.0
2019-Jun-07 07:29N 54°28' E 009°50'0 0.0
2019-Jun-07 06:59N 54°28' E 009°50'0 0.0
2019-Jun-07 06:29N 54°28' E 009°50'0 0.0
2019-Jun-07 05:50N 54°28' E 009°50'0 0.0
2019-Jun-07 05:20N 54°28' E 009°50'0 0.0
2019-Jun-07 04:53N 54°28' E 009°50'0 0.0
2019-Jun-07 04:23N 54°28' E 009°50'0 0.0
2019-Jun-07 03:53N 54°28' E 009°50'0 0.0
2019-Jun-07 03:23N 54°28' E 009°50'0 0.0
2019-Jun-07 02:53N 54°28' E 009°50'0 0.0
2019-Jun-07 02:23N 54°28' E 009°50'0 0.0
2019-Jun-07 01:56N 54°28' E 009°50'0 0.0
2019-Jun-07 01:26N 54°28' E 009°50'0 0.0
2019-Jun-07 00:56N 54°28' E 009°50'0 0.0
2019-Jun-07 00:26N 54°28' E 009°50'0 0.0
2019-Jun-06 23:56N 54°28' E 009°50'0 0.0
2019-Jun-06 23:26N 54°28' E 009°50'0 0.0
2019-Jun-06 22:59N 54°28' E 009°50'0 0.0
2019-Jun-06 22:29N 54°28' E 009°50'0 0.0
2019-Jun-06 21:59N 54°28' E 009°50'0 0.0
2019-Jun-06 21:29N 54°28' E 009°50'0 0.0
2019-Jun-06 20:59N 54°28' E 009°50'0 0.0
2019-Jun-06 20:29N 54°28' E 009°50'0 0.0
2019-Jun-06 19:59N 54°28' E 009°50'0 0.0
2019-Jun-06 19:29N 54°28' E 009°50'0 0.0
2019-Jun-06 18:59N 54°28' E 009°50'0 0.0
2019-Jun-06 18:29N 54°28' E 009°50'0 0.0
2019-Jun-06 17:59N 54°28' E 009°50'0 0.0
2019-Jun-06 17:31N 54°28' E 009°50'1 1.6
2019-Jun-06 17:01N 54°28' E 009°52'2 4.0
2019-Jun-06 16:31N 54°29' E 009°55'3 5.5
2019-Jun-06 16:01N 54°30' E 009°59'3 5.2
2019-Jun-06 15:30N 54°32' E 010°03'3 5.3
2019-Jun-06 15:00N 54°34' E 010°06'  
Track history (hours):
 
Tides and Currents Weather Stations Pressure Air Temp Water Temp Dewpoint Dewpoint Depression Visibility Wind Speed Wind Dir Waves Ship Positions

Roald Amundsen (Germany)

Built as a deep sea lugger in 1952. Converted and rigged as a traditional brig in 1992.

Ship's website: http://www.sailtraining.de/

Last reported at 2019-Jun-16 14:30 UTC. Time now 2019-Jun-16 14:58 UTC.
Position N 55°10' E 010°59'.

Length 50 m; beam 7.4 m; draft 4.5 m.

Type: Sailing vessel. MMSI: 211215170.

Date/timePositionNaut miles runAvg speedWind from/ knotsBaromVisibWave heightAir tempDewpointWater temp
2019-Jun-16 14:30N 55°10' E 010°59'2 2.4
2019-Jun-16 13:35N 55°12' E 010°59'0 2.2
2019-Jun-16 13:23N 55°12' E 010°59'2 3.0
2019-Jun-16 12:47N 55°14' E 010°59'1 2.9
2019-Jun-16 12:19N 55°15' E 011°00'1 2.6
2019-Jun-16 11:52N 55°16' E 011°01'15 3.0
2019-Jun-16 06:59N 55°28' E 010°44'3 1.2
2019-Jun-16 04:30N 55°29' E 010°49'36 2.8
2019-Jun-15 15:45N 55°32' E 009°46'5 0.8
2019-Jun-15 09:07N 55°27' E 009°43'1 5.9
2019-Jun-15 08:59N 55°26' E 009°44'13 4.4
2019-Jun-15 05:57N 55°13' E 009°50'6 0.9
2019-Jun-14 23:11N 55°09' E 009°57'0 0.0
2019-Jun-14 22:53N 55°09' E 009°57'5 0.6
2019-Jun-14 15:19N 55°04' E 009°59'3 4.3
2019-Jun-14 14:43N 55°02' E 010°01'3 5.8
2019-Jun-14 14:14N 54°59' E 010°03'1 5.3
2019-Jun-14 14:00N 54°58' E 010°04'2 4.3
2019-Jun-14 13:30N 54°56' E 010°05'2 4.5
2019-Jun-14 13:00N 54°54' E 010°06'2 4.3
2019-Jun-14 12:30N 54°52' E 010°07'2 4.3
2019-Jun-14 12:00N 54°50' E 010°06'2 3.8
2019-Jun-14 11:30N 54°48' E 010°05'1 1.9
2019-Jun-14 10:55N 54°47' E 010°03'1 3.2
2019-Jun-14 10:29N 54°48' E 010°01'2 3.6
2019-Jun-14 10:01N 54°48' E 009°58'2 3.4
2019-Jun-14 09:30N 54°49' E 009°56'2 3.4
2019-Jun-14 08:59N 54°50' E 009°53'2 3.7
2019-Jun-14 08:26N 54°51' E 009°50'2 3.9
2019-Jun-14 08:00N 54°52' E 009°48'2 3.6
2019-Jun-14 07:30N 54°53' E 009°45'0 0.4
2019-Jun-14 06:55N 54°54' E 009°45'0 0.0
2019-Jun-14 06:28N 54°54' E 009°45'0 0.0
2019-Jun-14 05:58N 54°54' E 009°45'0 0.0
2019-Jun-14 05:28N 54°54' E 009°45'0 0.0
2019-Jun-14 04:55N 54°54' E 009°45'0 0.0
2019-Jun-14 04:28N 54°54' E 009°45'0 0.0
2019-Jun-14 03:58N 54°54' E 009°45'0 0.0
2019-Jun-14 03:28N 54°54' E 009°45'0 0.0
2019-Jun-14 02:52N 54°54' E 009°45'0 0.0
2019-Jun-14 02:25N 54°54' E 009°45'0 0.0
2019-Jun-14 01:19N 54°54' E 009°45'0 0.0
2019-Jun-13 20:37N 54°54' E 009°45'0 0.0
2019-Jun-13 20:28N 54°54' E 009°45'0 0.0
2019-Jun-13 19:34N 54°54' E 009°45'0 0.0
2019-Jun-13 19:07N 54°54' E 009°45'0 0.0
2019-Jun-13 18:01N 54°54' E 009°45'0 0.0
2019-Jun-13 17:01N 54°54' E 009°45'0 0.0
2019-Jun-13 16:40N 54°54' E 009°45'0 0.0
2019-Jun-13 16:07N 54°54' E 009°45'0 0.0
2019-Jun-13 15:22N 54°54' E 009°45'0 0.0
2019-Jun-13 14:55N 54°54' E 009°45'0 0.0
2019-Jun-13 14:16N 54°54' E 009°45'0 0.0
2019-Jun-13 12:38N 54°54' E 009°45'1 2.3
2019-Jun-13 12:07N 54°53' E 009°47'7 4.0
2019-Jun-13 10:18N 54°49' E 009°57'1 4.1
2019-Jun-13 10:01N 54°48' E 009°59'2 3.1
2019-Jun-13 09:30N 54°47' E 010°01'1 2.8
2019-Jun-13 09:00N 54°46' E 010°03'1 2.7
2019-Jun-13 08:31N 54°45' E 010°04'1 2.8
2019-Jun-13 08:00N 54°44' E 010°06'1 2.8
2019-Jun-13 07:31N 54°43' E 010°08'1 1.7
2019-Jun-13 07:00N 54°42' E 010°07'2 3.8
2019-Jun-13 06:30N 54°41' E 010°04'2 3.4
2019-Jun-13 06:00N 54°40' E 010°03'1 1.2
2019-Jun-13 05:27N 54°39' E 010°03'0 0.0
2019-Jun-13 04:57N 54°39' E 010°03'0 0.0
2019-Jun-13 04:27N 54°39' E 010°03'0 0.0
2019-Jun-13 04:00N 54°39' E 010°03'0 0.0
2019-Jun-13 03:30N 54°39' E 010°03'0 0.0
2019-Jun-13 03:00N 54°39' E 010°03'0 0.0
2019-Jun-13 02:27N 54°39' E 010°03'0 0.0
2019-Jun-13 02:00N 54°39' E 010°03'0 0.0
2019-Jun-13 01:18N 54°39' E 010°03'0 0.0
2019-Jun-13 01:00N 54°39' E 010°03'0 0.0
2019-Jun-13 00:30N 54°39' E 010°03'0 0.0
2019-Jun-13 00:00N 54°39' E 010°03'0 0.0
2019-Jun-12 23:30N 54°39' E 010°03'0 0.0
2019-Jun-12 22:48N 54°39' E 010°03'0 0.0
2019-Jun-12 22:30N 54°39' E 010°03'0 0.0
2019-Jun-12 22:00N 54°39' E 010°03'0 0.0
2019-Jun-12 18:51N 54°39' E 010°03'0 0.0
2019-Jun-12 17:34N 54°39' E 010°03'0 0.7
2019-Jun-12 17:31N 54°39' E 010°03'2 3.7
2019-Jun-12 17:00N 54°37' E 010°04'1 1.6
2019-Jun-12 16:30N 54°37' E 010°04'0 0.8
2019-Jun-12 16:00N 54°36' E 010°04'1 2.5
2019-Jun-12 15:30N 54°35' E 010°03'1 1.4
2019-Jun-12 15:00N 54°34' E 010°03'1 1.4
2019-Jun-12 14:30N 54°34' E 010°03'1 1.4
2019-Jun-12 14:00N 54°33' E 010°03'1 1.9
2019-Jun-12 13:30N 54°32' E 010°03'1 2.9
2019-Jun-12 13:00N 54°31' E 010°02'1 2.6
2019-Jun-12 12:30N 54°30' E 009°60'1 2.3
2019-Jun-12 12:00N 54°30' E 009°58'1 2.9
2019-Jun-12 11:30N 54°29' E 009°56'1 2.9
2019-Jun-12 11:00N 54°28' E 009°54'2 2.5
2019-Jun-12 10:22N 54°28' E 009°51'0 0.1
2019-Jun-12 09:57N 54°28' E 009°51'0 0.0
2019-Jun-12 07:45N 54°28' E 009°51'0 0.0
2019-Jun-12 07:18N 54°28' E 009°51'0 0.1
2019-Jun-12 07:00N 54°28' E 009°51'0 0.0
2019-Jun-12 06:30N 54°28' E 009°51'0 0.0
2019-Jun-12 05:57N 54°28' E 009°51'0 0.0
2019-Jun-12 05:30N 54°28' E 009°51'0 0.0
2019-Jun-12 04:45N 54°28' E 009°51'0 0.0
2019-Jun-12 04:30N 54°28' E 009°51'0 0.0
2019-Jun-12 04:00N 54°28' E 009°51'0 0.1
2019-Jun-12 03:30N 54°28' E 009°51'0 0.1
2019-Jun-12 03:00N 54°28' E 009°51'0 0.1
2019-Jun-12 02:30N 54°28' E 009°51'0 0.0
2019-Jun-12 01:21N 54°28' E 009°51'0 0.0
2019-Jun-12 01:00N 54°28' E 009°51'0 0.0
2019-Jun-12 00:30N 54°28' E 009°51'0 0.0
2019-Jun-12 00:00N 54°28' E 009°51'0 0.0
2019-Jun-11 23:21N 54°28' E 009°51'0 0.0
2019-Jun-11 22:51N 54°28' E 009°51'0 0.0
2019-Jun-11 22:23N 54°28' E 009°51'0 0.0
2019-Jun-11 21:53N 54°28' E 009°51'0 0.0
2019-Jun-11 21:26N 54°28' E 009°51'0 0.0
2019-Jun-11 20:56N 54°28' E 009°51'0 0.0
2019-Jun-11 20:26N 54°28' E 009°51'0 0.0
2019-Jun-11 19:56N 54°28' E 009°51'0 0.0
2019-Jun-11 19:26N 54°28' E 009°51'0 0.0
2019-Jun-11 18:56N 54°28' E 009°51'0 0.0
2019-Jun-11 18:26N 54°28' E 009°51'0 0.0
2019-Jun-11 17:59N 54°28' E 009°51'0 0.0
2019-Jun-11 17:29N 54°28' E 009°51'0 0.0
2019-Jun-11 16:59N 54°28' E 009°51'0 0.5
2019-Jun-11 16:22N 54°28' E 009°50'0 0.0
2019-Jun-11 15:52N 54°28' E 009°50'0 0.0
2019-Jun-11 15:22N 54°28' E 009°50'0 0.0
2019-Jun-11 14:52N 54°28' E 009°50'0 0.0
2019-Jun-11 14:22N 54°28' E 009°50'0 0.0
2019-Jun-11 13:55N 54°28' E 009°50'0 0.0
2019-Jun-11 13:25N 54°28' E 009°50'0 0.0
2019-Jun-11 12:55N 54°28' E 009°50'0 0.0
2019-Jun-11 12:22N 54°28' E 009°50'0 0.0
2019-Jun-11 11:55N 54°28' E 009°50'0 0.0
2019-Jun-11 11:25N 54°28' E 009°50'0 0.0
2019-Jun-11 10:55N 54°28' E 009°50'0 0.0
2019-Jun-11 10:28N 54°28' E 009°50'0 0.0
2019-Jun-11 09:58N 54°28' E 009°50'0 0.0
2019-Jun-11 09:28N 54°28' E 009°50'0 0.0
2019-Jun-11 08:58N 54°28' E 009°50'0 0.0
2019-Jun-11 08:28N 54°28' E 009°50'0 0.0
2019-Jun-11 07:58N 54°28' E 009°50'0 0.0
2019-Jun-11 07:28N 54°28' E 009°50'0 0.0
2019-Jun-11 06:58N 54°28' E 009°50'0 0.0
2019-Jun-11 06:28N 54°28' E 009°50'0 0.0
2019-Jun-11 05:58N 54°28' E 009°50'0 0.0
2019-Jun-11 05:28N 54°28' E 009°50'0 0.0
2019-Jun-11 04:58N 54°28' E 009°50'0 0.0
2019-Jun-11 04:28N 54°28' E 009°50'0 0.0
2019-Jun-11 03:49N 54°28' E 009°50'0 0.0
2019-Jun-11 03:19N 54°28' E 009°50'0 0.0
2019-Jun-11 02:49N 54°28' E 009°50'0 0.0
2019-Jun-11 02:22N 54°28' E 009°50'0 0.0
2019-Jun-11 01:52N 54°28' E 009°50'0 0.0
2019-Jun-11 01:22N 54°28' E 009°50'0 0.0
2019-Jun-11 00:52N 54°28' E 009°50'0 0.0
2019-Jun-11 00:22N 54°28' E 009°50'0 0.0
2019-Jun-10 23:52N 54°28' E 009°50'0 0.0
2019-Jun-10 23:22N 54°28' E 009°50'0 0.0
2019-Jun-10 22:55N 54°28' E 009°50'0 0.0
2019-Jun-10 22:22N 54°28' E 009°50'0 0.0
2019-Jun-10 21:52N 54°28' E 009°50'0 0.0
2019-Jun-10 21:25N 54°28' E 009°50'0 0.0
2019-Jun-10 20:58N 54°28' E 009°50'0 0.0
2019-Jun-10 20:28N 54°28' E 009°50'0 0.0
2019-Jun-10 19:58N 54°28' E 009°50'0 0.0
2019-Jun-10 19:28N 54°28' E 009°50'0 0.0
2019-Jun-10 18:58N 54°28' E 009°50'0 0.0
2019-Jun-10 18:28N 54°28' E 009°50'0 0.0
2019-Jun-10 17:58N 54°28' E 009°50'0 0.0
2019-Jun-10 17:28N 54°28' E 009°50'0 0.0
2019-Jun-10 16:58N 54°28' E 009°50'0 0.0
2019-Jun-10 16:28N 54°28' E 009°50'0 0.0
2019-Jun-10 15:58N 54°28' E 009°50'0 0.0
2019-Jun-10 15:28N 54°28' E 009°50'0 0.0
2019-Jun-10 14:58N 54°28' E 009°50'0 0.0
2019-Jun-10 14:19N 54°28' E 009°50'0 0.0
2019-Jun-10 13:49N 54°28' E 009°50'0 0.0
2019-Jun-10 13:19N 54°28' E 009°50'0 0.0
2019-Jun-10 12:49N 54°28' E 009°50'0 0.0
2019-Jun-10 12:19N 54°28' E 009°50'0 0.0
2019-Jun-10 11:52N 54°28' E 009°50'0 0.0
2019-Jun-10 11:24N 54°28' E 009°50'0 0.2
2019-Jun-10 11:00N 54°28' E 009°51'2 4.1
2019-Jun-10 10:30N 54°29' E 009°54'3 5.4
2019-Jun-10 10:00N 54°30' E 009°58'3 5.0
2019-Jun-10 09:30N 54°31' E 010°02'2 4.5
2019-Jun-10 09:00N 54°33' E 010°04'2 4.2
2019-Jun-10 08:30N 54°35' E 010°06'2 4.1
2019-Jun-10 08:00N 54°37' E 010°08'2 4.2
2019-Jun-10 07:29N 54°39' E 010°09'2 4.6
2019-Jun-10 07:00N 54°41' E 010°09'6 5.7
2019-Jun-10 05:56N 54°47' E 010°11'3 6.0
2019-Jun-10 05:30N 54°50' E 010°11'2 4.8
2019-Jun-10 05:00N 54°52' E 010°11'4 2.6
2019-Jun-10 03:31N 54°56' E 010°13'0 4.4
2019-Jun-10 03:29N 54°56' E 010°13'1 0.5
2019-Jun-10 01:50N 54°56' E 010°14'0 0.0
2019-Jun-10 01:02N 54°56' E 010°14'0 0.0
2019-Jun-10 00:50N 54°56' E 010°14'0 0.0
2019-Jun-10 00:11N 54°56' E 010°14'0 0.0
2019-Jun-09 22:20N 54°56' E 010°14'5 0.1
2019-Jun-08 10:42N 54°56' E 010°05'2 6.5
2019-Jun-08 10:24N 54°54' E 010°06'10 6.3
2019-Jun-08 08:47N 54°44' E 010°08'2 6.4
2019-Jun-08 08:30N 54°42' E 010°09'3 6.1
2019-Jun-08 08:00N 54°39' E 010°09'3 5.2
2019-Jun-08 07:30N 54°37' E 010°09'2 4.9
2019-Jun-08 07:01N 54°34' E 010°07'2 4.7
2019-Jun-08 06:30N 54°32' E 010°05'2 3.7
2019-Jun-08 06:00N 54°31' E 010°02'3 5.1
2019-Jun-08 05:30N 54°30' E 009°59'3 5.1
2019-Jun-08 05:00N 54°29' E 009°55'2 4.0
2019-Jun-08 04:30N 54°28' E 009°51'0 0.2
2019-Jun-08 03:59N 54°28' E 009°51'0 0.0
2019-Jun-08 03:29N 54°28' E 009°51'0 0.0
2019-Jun-08 02:59N 54°28' E 009°51'0 0.0
2019-Jun-08 02:29N 54°28' E 009°51'0 0.0
2019-Jun-08 01:59N 54°28' E 009°51'0 0.0
2019-Jun-08 01:29N 54°28' E 009°51'0 0.0
2019-Jun-08 01:00N 54°28' E 009°51'0 0.0
2019-Jun-08 00:29N 54°28' E 009°51'0 0.0
2019-Jun-07 23:59N 54°28' E 009°51'0 0.0
2019-Jun-07 23:29N 54°28' E 009°51'0 0.0
2019-Jun-07 22:59N 54°28' E 009°51'0 0.1
2019-Jun-07 22:29N 54°28' E 009°51'0 0.0
2019-Jun-07 21:59N 54°28' E 009°51'0 0.0
2019-Jun-07 21:29N 54°28' E 009°51'0 0.0
2019-Jun-07 20:59N 54°28' E 009°51'0 0.0
2019-Jun-07 20:26N 54°28' E 009°51'0 0.0
2019-Jun-07 19:59N 54°28' E 009°51'0 0.0
2019-Jun-07 19:29N 54°28' E 009°51'0 0.0
2019-Jun-07 18:59N 54°28' E 009°51'0 0.0
2019-Jun-07 18:26N 54°28' E 009°51'0 0.0
2019-Jun-07 17:59N 54°28' E 009°51'0 0.5
2019-Jun-07 17:29N 54°28' E 009°51'0 0.7
2019-Jun-07 16:58N 54°28' E 009°50'0 0.0
2019-Jun-07 16:28N 54°28' E 009°50'0 0.0
2019-Jun-07 15:58N 54°28' E 009°50'0 0.0
2019-Jun-07 15:22N 54°28' E 009°50'0 0.0
2019-Jun-07 14:58N 54°28' E 009°50'0 0.0
2019-Jun-07 14:28N 54°28' E 009°50'0 0.0
2019-Jun-07 13:43N 54°28' E 009°50'0 0.0
2019-Jun-07 13:28N 54°28' E 009°50'0 0.0
2019-Jun-07 12:58N 54°28' E 009°50'0 0.0
2019-Jun-07 12:25N 54°28' E 009°50'0 0.0
2019-Jun-07 11:46N 54°28' E 009°50'0 0.0
2019-Jun-07 11:28N 54°28' E 009°50'0 0.0
2019-Jun-07 10:46N 54°28' E 009°50'0 0.0
2019-Jun-07 10:19N 54°28' E 009°50'0 0.0
2019-Jun-07 09:43N 54°28' E 009°50'0 0.0
2019-Jun-07 09:17N 54°28' E 009°50'0 0.0
2019-Jun-07 08:59N 54°28' E 009°50'0 0.0
2019-Jun-07 08:29N 54°28' E 009°50'0 0.0
2019-Jun-07 07:59N 54°28' E 009°50'0 0.0
2019-Jun-07 07:29N 54°28' E 009°50'0 0.0
2019-Jun-07 06:59N 54°28' E 009°50'0 0.0
2019-Jun-07 06:29N 54°28' E 009°50'0 0.0
2019-Jun-07 05:50N 54°28' E 009°50'0 0.0
2019-Jun-07 05:20N 54°28' E 009°50'0 0.0
2019-Jun-07 04:53N 54°28' E 009°50'0 0.0
2019-Jun-07 04:23N 54°28' E 009°50'0 0.0
2019-Jun-07 03:53N 54°28' E 009°50'0 0.0
2019-Jun-07 03:23N 54°28' E 009°50'0 0.0
2019-Jun-07 02:53N 54°28' E 009°50'0 0.0
2019-Jun-07 02:23N 54°28' E 009°50'0 0.0
2019-Jun-07 01:56N 54°28' E 009°50'0 0.0
2019-Jun-07 01:26N 54°28' E 009°50'0 0.0
2019-Jun-07 00:56N 54°28' E 009°50'0 0.0
2019-Jun-07 00:26N 54°28' E 009°50'0 0.0
2019-Jun-06 23:56N 54°28' E 009°50'0 0.0
2019-Jun-06 23:26N 54°28' E 009°50'0 0.0
2019-Jun-06 22:59N 54°28' E 009°50'0 0.0
2019-Jun-06 22:29N 54°28' E 009°50'0 0.0
2019-Jun-06 21:59N 54°28' E 009°50'0 0.0
2019-Jun-06 21:29N 54°28' E 009°50'0 0.0
2019-Jun-06 20:59N 54°28' E 009°50'0 0.0
2019-Jun-06 20:29N 54°28' E 009°50'0 0.0
2019-Jun-06 19:59N 54°28' E 009°50'0 0.0
2019-Jun-06 19:29N 54°28' E 009°50'0 0.0
2019-Jun-06 18:59N 54°28' E 009°50'0 0.0
2019-Jun-06 18:29N 54°28' E 009°50'0 0.0
2019-Jun-06 17:59N 54°28' E 009°50'0 0.0
2019-Jun-06 17:31N 54°28' E 009°50'1 1.6
2019-Jun-06 17:01N 54°28' E 009°52'2 4.0
2019-Jun-06 16:31N 54°29' E 009°55'3 5.5
2019-Jun-06 16:01N 54°30' E 009°59'3 5.2
2019-Jun-06 15:30N 54°32' E 010°03'3 5.3
2019-Jun-06 15:00N 54°34' E 010°06'  

Dump ship's entire track history